sensor_id;sensor_type;location;lat;lon;timestamp;P1;durP1;ratioP1;P2;durP2;ratioP2
76194;SDS011;64964;48.694;21.206;2023-07-24T00:02:23;7.50;;;4.00;;
76194;SDS011;64964;48.694;21.206;2023-07-24T00:04:48;5.80;;;3.67;;
76194;SDS011;64964;48.694;21.206;2023-07-24T00:07:13;5.30;;;3.63;;
76194;SDS011;64964;48.694;21.206;2023-07-24T00:09:39;5.27;;;3.40;;
76194;SDS011;64964;48.694;21.206;2023-07-24T00:12:04;5.38;;;3.45;;
76194;SDS011;64964;48.694;21.206;2023-07-24T00:14:30;5.00;;;3.20;;
76194;SDS011;64964;48.694;21.206;2023-07-24T00:16:55;8.15;;;3.65;;
76194;SDS011;64964;48.694;21.206;2023-07-24T00:19:21;8.40;;;3.30;;
76194;SDS011;64964;48.694;21.206;2023-07-24T00:21:46;7.17;;;3.67;;
76194;SDS011;64964;48.694;21.206;2023-07-24T00:24:11;6.10;;;3.13;;
76194;SDS011;64964;48.694;21.206;2023-07-24T00:26:37;4.67;;;3.37;;
76194;SDS011;64964;48.694;21.206;2023-07-24T00:29:02;4.80;;;3.58;;
76194;SDS011;64964;48.694;21.206;2023-07-24T00:31:27;6.03;;;3.10;;
76194;SDS011;64964;48.694;21.206;2023-07-24T00:33:53;5.63;;;3.40;;
76194;SDS011;64964;48.694;21.206;2023-07-24T00:36:18;5.93;;;3.10;;
76194;SDS011;64964;48.694;21.206;2023-07-24T00:38:44;4.83;;;3.50;;
76194;SDS011;64964;48.694;21.206;2023-07-24T00:41:09;5.80;;;3.55;;
76194;SDS011;64964;48.694;21.206;2023-07-24T00:43:34;6.90;;;3.77;;
76194;SDS011;64964;48.694;21.206;2023-07-24T00:46:00;5.17;;;3.50;;
76194;SDS011;64964;48.694;21.206;2023-07-24T00:48:25;6.23;;;4.00;;
76194;SDS011;64964;48.694;21.206;2023-07-24T00:50:51;7.53;;;3.88;;
76194;SDS011;64964;48.694;21.206;2023-07-24T00:53:17;6.17;;;4.20;;
76194;SDS011;64964;48.694;21.206;2023-07-24T00:55:44;7.38;;;3.92;;
76194;SDS011;64964;48.694;21.206;2023-07-24T00:58:13;8.88;;;3.70;;
76194;SDS011;64964;48.694;21.206;2023-07-24T01:00:41;9.02;;;3.60;;
76194;SDS011;64964;48.694;21.206;2023-07-24T01:03:07;7.73;;;3.80;;
76194;SDS011;64964;48.694;21.206;2023-07-24T01:05:33;7.82;;;3.67;;
76194;SDS011;64964;48.694;21.206;2023-07-24T01:07:58;7.27;;;4.07;;
76194;SDS011;64964;48.694;21.206;2023-07-24T01:10:24;5.87;;;3.60;;
76194;SDS011;64964;48.694;21.206;2023-07-24T01:12:58;8.83;;;4.13;;
76194;SDS011;64964;48.694;21.206;2023-07-24T01:15:45;6.68;;;3.72;;
76194;SDS011;64964;48.694;21.206;2023-07-24T01:18:15;5.68;;;4.00;;
76194;SDS011;64964;48.694;21.206;2023-07-24T01:20:49;5.60;;;3.90;;
76194;SDS011;64964;48.694;21.206;2023-07-24T01:25:59;7.00;;;4.10;;
76194;SDS011;64964;48.694;21.206;2023-07-24T01:28:26;6.68;;;3.63;;
76194;SDS011;64964;48.694;21.206;2023-07-24T01:30:52;7.25;;;4.20;;
76194;SDS011;64964;48.694;21.206;2023-07-24T01:33:18;8.45;;;4.25;;
76194;SDS011;64964;48.694;21.206;2023-07-24T01:35:44;5.13;;;3.90;;
76194;SDS011;64964;48.694;21.206;2023-07-24T01:38:12;8.20;;;3.78;;
76194;SDS011;64964;48.694;21.206;2023-07-24T01:40:41;7.97;;;3.85;;
76194;SDS011;64964;48.694;21.206;2023-07-24T01:43:07;6.23;;;3.83;;
76194;SDS011;64964;48.694;21.206;2023-07-24T01:45:33;8.35;;;4.00;;
76194;SDS011;64964;48.694;21.206;2023-07-24T01:47:59;6.37;;;4.23;;
76194;SDS011;64964;48.694;21.206;2023-07-24T01:50:24;8.73;;;4.55;;
76194;SDS011;64964;48.694;21.206;2023-07-24T01:52:50;9.07;;;4.18;;
76194;SDS011;64964;48.694;21.206;2023-07-24T01:55:16;6.17;;;4.10;;
76194;SDS011;64964;48.694;21.206;2023-07-24T01:57:41;6.20;;;4.07;;
76194;SDS011;64964;48.694;21.206;2023-07-24T02:00:06;11.53;;;4.27;;
76194;SDS011;64964;48.694;21.206;2023-07-24T02:02:32;6.50;;;3.60;;
76194;SDS011;64964;48.694;21.206;2023-07-24T02:04:58;7.30;;;4.07;;
76194;SDS011;64964;48.694;21.206;2023-07-24T02:07:23;9.07;;;4.68;;
76194;SDS011;64964;48.694;21.206;2023-07-24T02:09:48;8.20;;;4.20;;
76194;SDS011;64964;48.694;21.206;2023-07-24T02:12:14;6.28;;;3.72;;
76194;SDS011;64964;48.694;21.206;2023-07-24T02:14:39;5.23;;;3.90;;
76194;SDS011;64964;48.694;21.206;2023-07-24T02:17:05;6.03;;;3.70;;
76194;SDS011;64964;48.694;21.206;2023-07-24T02:19:30;6.43;;;3.97;;
76194;SDS011;64964;48.694;21.206;2023-07-24T02:21:56;6.97;;;3.70;;
76194;SDS011;64964;48.694;21.206;2023-07-24T02:24:21;7.00;;;3.75;;
76194;SDS011;64964;48.694;21.206;2023-07-24T02:26:46;8.30;;;3.63;;
76194;SDS011;64964;48.694;21.206;2023-07-24T02:29:12;6.00;;;4.23;;
76194;SDS011;64964;48.694;21.206;2023-07-24T02:31:37;6.87;;;4.00;;
76194;SDS011;64964;48.694;21.206;2023-07-24T02:34:03;8.57;;;3.83;;
76194;SDS011;64964;48.694;21.206;2023-07-24T02:36:28;7.90;;;3.90;;
76194;SDS011;64964;48.694;21.206;2023-07-24T02:38:54;7.17;;;4.37;;
76194;SDS011;64964;48.694;21.206;2023-07-24T02:41:19;6.73;;;4.10;;
76194;SDS011;64964;48.694;21.206;2023-07-24T02:43:44;7.93;;;3.83;;
76194;SDS011;64964;48.694;21.206;2023-07-24T02:46:10;5.80;;;3.60;;
76194;SDS011;64964;48.694;21.206;2023-07-24T02:48:35;6.00;;;3.63;;
76194;SDS011;64964;48.694;21.206;2023-07-24T02:51:00;6.30;;;4.00;;
76194;SDS011;64964;48.694;21.206;2023-07-24T02:53:26;6.00;;;3.67;;
76194;SDS011;64964;48.694;21.206;2023-07-24T02:55:51;6.90;;;4.03;;
76194;SDS011;64964;48.694;21.206;2023-07-24T02:58:16;5.97;;;3.83;;
76194;SDS011;64964;48.694;21.206;2023-07-24T03:00:42;6.00;;;3.57;;
76194;SDS011;64964;48.694;21.206;2023-07-24T03:03:07;5.93;;;3.90;;
76194;SDS011;64964;48.694;21.206;2023-07-24T03:05:35;4.67;;;3.57;;
76194;SDS011;64964;48.694;21.206;2023-07-24T03:08:01;5.27;;;4.20;;
76194;SDS011;64964;48.694;21.206;2023-07-24T03:10:26;8.77;;;4.15;;
76194;SDS011;64964;48.694;21.206;2023-07-24T03:12:52;6.53;;;3.90;;
76194;SDS011;64964;48.694;21.206;2023-07-24T03:15:18;6.70;;;3.97;;
76194;SDS011;64964;48.694;21.206;2023-07-24T03:17:43;6.97;;;3.90;;
76194;SDS011;64964;48.694;21.206;2023-07-24T03:20:09;6.17;;;4.00;;
76194;SDS011;64964;48.694;21.206;2023-07-24T03:22:38;8.48;;;4.20;;
76194;SDS011;64964;48.694;21.206;2023-07-24T03:25:05;8.38;;;3.95;;
76194;SDS011;64964;48.694;21.206;2023-07-24T03:27:31;7.73;;;4.17;;
76194;SDS011;64964;48.694;21.206;2023-07-24T03:29:56;8.77;;;4.10;;
76194;SDS011;64964;48.694;21.206;2023-07-24T03:32:22;7.53;;;4.15;;
76194;SDS011;64964;48.694;21.206;2023-07-24T03:34:47;6.20;;;3.67;;
76194;SDS011;64964;48.694;21.206;2023-07-24T03:37:12;6.87;;;4.00;;
76194;SDS011;64964;48.694;21.206;2023-07-24T03:39:38;8.20;;;4.00;;
76194;SDS011;64964;48.694;21.206;2023-07-24T03:42:03;6.57;;;4.33;;
76194;SDS011;64964;48.694;21.206;2023-07-24T03:44:29;6.80;;;4.03;;
76194;SDS011;64964;48.694;21.206;2023-07-24T03:46:54;6.23;;;3.80;;
76194;SDS011;64964;48.694;21.206;2023-07-24T03:49:19;6.50;;;4.20;;
76194;SDS011;64964;48.694;21.206;2023-07-24T03:51:45;7.37;;;4.43;;
76194;SDS011;64964;48.694;21.206;2023-07-24T03:54:10;8.80;;;4.40;;
76194;SDS011;64964;48.694;21.206;2023-07-24T03:56:35;9.40;;;4.30;;
76194;SDS011;64964;48.694;21.206;2023-07-24T03:59:01;7.70;;;4.37;;
76194;SDS011;64964;48.694;21.206;2023-07-24T04:01:26;9.52;;;4.90;;
76194;SDS011;64964;48.694;21.206;2023-07-24T04:03:52;9.37;;;4.77;;
76194;SDS011;64964;48.694;21.206;2023-07-24T04:06:17;11.10;;;4.73;;
76194;SDS011;64964;48.694;21.206;2023-07-24T04:08:43;11.48;;;5.30;;
76194;SDS011;64964;48.694;21.206;2023-07-24T04:11:08;13.77;;;5.23;;
76194;SDS011;64964;48.694;21.206;2023-07-24T04:13:33;8.27;;;4.90;;
76194;SDS011;64964;48.694;21.206;2023-07-24T04:15:59;13.43;;;4.93;;
76194;SDS011;64964;48.694;21.206;2023-07-24T04:18:24;7.80;;;4.37;;
76194;SDS011;64964;48.694;21.206;2023-07-24T04:20:50;7.80;;;4.63;;
76194;SDS011;64964;48.694;21.206;2023-07-24T04:23:15;7.70;;;4.73;;
76194;SDS011;64964;48.694;21.206;2023-07-24T04:25:40;9.17;;;4.70;;
76194;SDS011;64964;48.694;21.206;2023-07-24T04:28:06;8.27;;;4.23;;
76194;SDS011;64964;48.694;21.206;2023-07-24T04:30:31;8.27;;;4.70;;
76194;SDS011;64964;48.694;21.206;2023-07-24T04:32:57;11.00;;;5.17;;
76194;SDS011;64964;48.694;21.206;2023-07-24T04:35:24;8.57;;;4.37;;
76194;SDS011;64964;48.694;21.206;2023-07-24T04:37:51;8.03;;;4.80;;
76194;SDS011;64964;48.694;21.206;2023-07-24T04:40:17;8.98;;;4.20;;
76194;SDS011;64964;48.694;21.206;2023-07-24T04:42:42;9.63;;;4.33;;
76194;SDS011;64964;48.694;21.206;2023-07-24T04:45:08;8.80;;;4.30;;
76194;SDS011;64964;48.694;21.206;2023-07-24T04:47:33;9.07;;;4.18;;
76194;SDS011;64964;48.694;21.206;2023-07-24T04:49:59;8.30;;;4.30;;
76194;SDS011;64964;48.694;21.206;2023-07-24T04:52:24;8.47;;;4.47;;
76194;SDS011;64964;48.694;21.206;2023-07-24T04:54:49;7.83;;;4.50;;
76194;SDS011;64964;48.694;21.206;2023-07-24T04:57:15;10.13;;;4.30;;
76194;SDS011;64964;48.694;21.206;2023-07-24T04:59:40;7.73;;;4.37;;
76194;SDS011;64964;48.694;21.206;2023-07-24T05:02:05;6.87;;;4.03;;
76194;SDS011;64964;48.694;21.206;2023-07-24T05:04:31;8.83;;;3.97;;
76194;SDS011;64964;48.694;21.206;2023-07-24T05:06:56;7.83;;;4.00;;
76194;SDS011;64964;48.694;21.206;2023-07-24T05:09:21;8.63;;;4.20;;
76194;SDS011;64964;48.694;21.206;2023-07-24T05:11:47;8.43;;;3.88;;
76194;SDS011;64964;48.694;21.206;2023-07-24T05:14:12;6.20;;;3.90;;
76194;SDS011;64964;48.694;21.206;2023-07-24T05:16:37;7.43;;;3.87;;
76194;SDS011;64964;48.694;21.206;2023-07-24T05:19:03;6.87;;;4.20;;
76194;SDS011;64964;48.694;21.206;2023-07-24T05:21:28;5.70;;;4.00;;
76194;SDS011;64964;48.694;21.206;2023-07-24T05:23:54;5.60;;;3.80;;
76194;SDS011;64964;48.694;21.206;2023-07-24T05:26:19;7.07;;;3.93;;
76194;SDS011;64964;48.694;21.206;2023-07-24T05:28:47;6.75;;;3.75;;
76194;SDS011;64964;48.694;21.206;2023-07-24T05:31:12;5.87;;;4.03;;
76194;SDS011;64964;48.694;21.206;2023-07-24T05:33:37;7.27;;;3.93;;
76194;SDS011;64964;48.694;21.206;2023-07-24T05:36:03;6.82;;;3.60;;
76194;SDS011;64964;48.694;21.206;2023-07-24T05:38:29;7.27;;;4.27;;
76194;SDS011;64964;48.694;21.206;2023-07-24T05:40:59;6.53;;;4.00;;
76194;SDS011;64964;48.694;21.206;2023-07-24T05:43:27;7.38;;;3.88;;
76194;SDS011;64964;48.694;21.206;2023-07-24T05:45:52;5.93;;;3.83;;
76194;SDS011;64964;48.694;21.206;2023-07-24T05:48:19;7.68;;;3.95;;
76194;SDS011;64964;48.694;21.206;2023-07-24T05:50:44;5.60;;;4.00;;
76194;SDS011;64964;48.694;21.206;2023-07-24T05:53:10;5.50;;;3.80;;
76194;SDS011;64964;48.694;21.206;2023-07-24T05:55:35;5.72;;;3.58;;
76194;SDS011;64964;48.694;21.206;2023-07-24T05:58:00;6.43;;;3.90;;
76194;SDS011;64964;48.694;21.206;2023-07-24T06:00:26;6.47;;;4.10;;
76194;SDS011;64964;48.694;21.206;2023-07-24T06:02:52;6.80;;;4.20;;
76194;SDS011;64964;48.694;21.206;2023-07-24T06:05:18;6.18;;;3.88;;
76194;SDS011;64964;48.694;21.206;2023-07-24T06:07:44;6.75;;;4.22;;
76194;SDS011;64964;48.694;21.206;2023-07-24T06:10:10;7.85;;;4.22;;
76194;SDS011;64964;48.694;21.206;2023-07-24T06:12:35;7.37;;;4.40;;
76194;SDS011;64964;48.694;21.206;2023-07-24T06:15:01;7.30;;;3.73;;
76194;SDS011;64964;48.694;21.206;2023-07-24T06:17:26;8.80;;;3.83;;
76194;SDS011;64964;48.694;21.206;2023-07-24T06:19:51;6.63;;;3.90;;
76194;SDS011;64964;48.694;21.206;2023-07-24T06:22:17;6.28;;;3.80;;
76194;SDS011;64964;48.694;21.206;2023-07-24T06:24:42;6.20;;;3.70;;
76194;SDS011;64964;48.694;21.206;2023-07-24T06:27:07;8.37;;;3.93;;
76194;SDS011;64964;48.694;21.206;2023-07-24T06:29:33;4.90;;;3.43;;
76194;SDS011;64964;48.694;21.206;2023-07-24T06:31:58;6.32;;;4.00;;
76194;SDS011;64964;48.694;21.206;2023-07-24T06:34:24;6.63;;;3.67;;
76194;SDS011;64964;48.694;21.206;2023-07-24T06:36:49;7.27;;;4.00;;
76194;SDS011;64964;48.694;21.206;2023-07-24T06:39:14;7.70;;;4.10;;
76194;SDS011;64964;48.694;21.206;2023-07-24T06:41:40;5.75;;;3.50;;
76194;SDS011;64964;48.694;21.206;2023-07-24T06:44:06;8.50;;;3.63;;
76194;SDS011;64964;48.694;21.206;2023-07-24T06:46:31;6.50;;;4.00;;
76194;SDS011;64964;48.694;21.206;2023-07-24T06:48:56;5.83;;;3.73;;
76194;SDS011;64964;48.694;21.206;2023-07-24T06:51:22;5.97;;;3.93;;
76194;SDS011;64964;48.694;21.206;2023-07-24T06:53:47;5.10;;;3.93;;
76194;SDS011;64964;48.694;21.206;2023-07-24T06:56:12;7.27;;;4.20;;
76194;SDS011;64964;48.694;21.206;2023-07-24T06:58:38;5.82;;;4.20;;
76194;SDS011;64964;48.694;21.206;2023-07-24T07:01:07;8.40;;;4.00;;
76194;SDS011;64964;48.694;21.206;2023-07-24T07:03:32;5.80;;;3.80;;
76194;SDS011;64964;48.694;21.206;2023-07-24T07:06:00;5.85;;;4.15;;
76194;SDS011;64964;48.694;21.206;2023-07-24T07:08:26;13.88;;;5.15;;
76194;SDS011;64964;48.694;21.206;2023-07-24T07:10:58;6.23;;;3.70;;
76194;SDS011;64964;48.694;21.206;2023-07-24T07:13:24;5.70;;;4.10;;
76194;SDS011;64964;48.694;21.206;2023-07-24T07:15:50;4.50;;;3.77;;
76194;SDS011;64964;48.694;21.206;2023-07-24T07:18:15;7.10;;;3.93;;
76194;SDS011;64964;48.694;21.206;2023-07-24T07:20:47;4.83;;;3.50;;
76194;SDS011;64964;48.694;21.206;2023-07-24T07:23:14;5.57;;;3.90;;
76194;SDS011;64964;48.694;21.206;2023-07-24T07:25:39;4.65;;;3.83;;
76194;SDS011;64964;48.694;21.206;2023-07-24T07:28:05;5.47;;;3.90;;
76194;SDS011;64964;48.694;21.206;2023-07-24T07:30:30;6.77;;;4.17;;
76194;SDS011;64964;48.694;21.206;2023-07-24T07:32:55;5.93;;;4.10;;
76194;SDS011;64964;48.694;21.206;2023-07-24T07:35:21;7.90;;;4.10;;
76194;SDS011;64964;48.694;21.206;2023-07-24T07:37:46;7.73;;;3.87;;
76194;SDS011;64964;48.694;21.206;2023-07-24T07:40:11;6.23;;;3.97;;
76194;SDS011;64964;48.694;21.206;2023-07-24T07:42:37;6.53;;;4.67;;
76194;SDS011;64964;48.694;21.206;2023-07-24T07:45:02;6.17;;;4.13;;
76194;SDS011;64964;48.694;21.206;2023-07-24T07:47:28;6.90;;;4.50;;
76194;SDS011;64964;48.694;21.206;2023-07-24T07:49:53;9.20;;;4.90;;
76194;SDS011;64964;48.694;21.206;2023-07-24T07:52:19;8.07;;;5.33;;
76194;SDS011;64964;48.694;21.206;2023-07-24T07:54:47;8.90;;;6.00;;
76194;SDS011;64964;48.694;21.206;2023-07-24T07:57:13;7.65;;;4.72;;
76194;SDS011;64964;48.694;21.206;2023-07-24T07:59:38;9.93;;;4.40;;
76194;SDS011;64964;48.694;21.206;2023-07-24T08:02:03;6.70;;;4.20;;
76194;SDS011;64964;48.694;21.206;2023-07-24T08:04:29;6.30;;;4.70;;
76194;SDS011;64964;48.694;21.206;2023-07-24T08:06:54;8.17;;;5.40;;
76194;SDS011;64964;48.694;21.206;2023-07-24T08:09:20;7.53;;;4.30;;
76194;SDS011;64964;48.694;21.206;2023-07-24T08:11:46;7.95;;;5.05;;
76194;SDS011;64964;48.694;21.206;2023-07-24T08:14:12;18.60;;;8.05;;
76194;SDS011;64964;48.694;21.206;2023-07-24T08:16:37;14.17;;;6.87;;
76194;SDS011;64964;48.694;21.206;2023-07-24T08:19:03;16.50;;;8.87;;
76194;SDS011;64964;48.694;21.206;2023-07-24T08:21:28;14.63;;;6.97;;
76194;SDS011;64964;48.694;21.206;2023-07-24T08:23:53;10.65;;;6.50;;
76194;SDS011;64964;48.694;21.206;2023-07-24T08:26:19;11.03;;;6.10;;
76194;SDS011;64964;48.694;21.206;2023-07-24T08:28:44;7.97;;;5.70;;
76194;SDS011;64964;48.694;21.206;2023-07-24T08:31:10;8.23;;;4.87;;
76194;SDS011;64964;48.694;21.206;2023-07-24T08:33:35;9.80;;;5.88;;
76194;SDS011;64964;48.694;21.206;2023-07-24T08:36:07;8.97;;;5.30;;
76194;SDS011;64964;48.694;21.206;2023-07-24T08:38:33;7.72;;;4.60;;
76194;SDS011;64964;48.694;21.206;2023-07-24T08:41:09;7.38;;;5.10;;
76194;SDS011;64964;48.694;21.206;2023-07-24T08:43:36;6.33;;;4.90;;
76194;SDS011;64964;48.694;21.206;2023-07-24T08:46:03;13.33;;;9.40;;
76194;SDS011;64964;48.694;21.206;2023-07-24T08:48:30;12.50;;;7.18;;
76194;SDS011;64964;48.694;21.206;2023-07-24T08:50:59;14.88;;;8.95;;
76194;SDS011;64964;48.694;21.206;2023-07-24T08:53:25;10.65;;;6.75;;
76194;SDS011;64964;48.694;21.206;2023-07-24T08:55:50;12.03;;;6.07;;
76194;SDS011;64964;48.694;21.206;2023-07-24T08:58:17;14.93;;;7.77;;
76194;SDS011;64964;48.694;21.206;2023-07-24T09:00:43;7.15;;;5.35;;
76194;SDS011;64964;48.694;21.206;2023-07-24T09:03:08;5.80;;;4.60;;
76194;SDS011;64964;48.694;21.206;2023-07-24T09:05:34;12.48;;;6.80;;
76194;SDS011;64964;48.694;21.206;2023-07-24T09:07:59;7.33;;;5.13;;
76194;SDS011;64964;48.694;21.206;2023-07-24T09:10:25;9.23;;;5.40;;
76194;SDS011;64964;48.694;21.206;2023-07-24T09:12:51;14.52;;;8.82;;
76194;SDS011;64964;48.694;21.206;2023-07-24T09:15:17;12.03;;;7.10;;
76194;SDS011;64964;48.694;21.206;2023-07-24T09:17:51;6.53;;;4.88;;
76194;SDS011;64964;48.694;21.206;2023-07-24T09:20:18;6.13;;;4.55;;
76194;SDS011;64964;48.694;21.206;2023-07-24T09:22:53;11.50;;;5.10;;
76194;SDS011;64964;48.694;21.206;2023-07-24T09:25:29;6.90;;;4.70;;
76194;SDS011;64964;48.694;21.206;2023-07-24T09:27:56;7.07;;;4.65;;
76194;SDS011;64964;48.694;21.206;2023-07-24T09:30:22;6.45;;;4.60;;
76194;SDS011;64964;48.694;21.206;2023-07-24T09:32:52;7.07;;;4.70;;
76194;SDS011;64964;48.694;21.206;2023-07-24T09:35:18;7.07;;;4.80;;
76194;SDS011;64964;48.694;21.206;2023-07-24T09:37:44;7.20;;;4.95;;
76194;SDS011;64964;48.694;21.206;2023-07-24T09:40:10;7.78;;;4.80;;
76194;SDS011;64964;48.694;21.206;2023-07-24T09:42:37;5.93;;;4.85;;
76194;SDS011;64964;48.694;21.206;2023-07-24T09:45:05;7.23;;;5.50;;
76194;SDS011;64964;48.694;21.206;2023-07-24T09:47:31;6.73;;;5.10;;
76194;SDS011;64964;48.694;21.206;2023-07-24T09:49:57;10.10;;;5.22;;
76194;SDS011;64964;48.694;21.206;2023-07-24T09:52:24;7.25;;;5.15;;
76194;SDS011;64964;48.694;21.206;2023-07-24T09:54:55;7.78;;;5.03;;
76194;SDS011;64964;48.694;21.206;2023-07-24T09:57:28;9.83;;;5.70;;
76194;SDS011;64964;48.694;21.206;2023-07-24T09:59:54;15.90;;;8.30;;
76194;SDS011;64964;48.694;21.206;2023-07-24T10:02:21;8.95;;;5.88;;
76194;SDS011;64964;48.694;21.206;2023-07-24T10:04:48;10.73;;;7.90;;
76194;SDS011;64964;48.694;21.206;2023-07-24T10:07:15;17.80;;;11.07;;
76194;SDS011;64964;48.694;21.206;2023-07-24T10:09:42;9.65;;;7.03;;
76194;SDS011;64964;48.694;21.206;2023-07-24T10:12:08;13.75;;;9.43;;
76194;SDS011;64964;48.694;21.206;2023-07-24T10:14:34;11.40;;;7.72;;
76194;SDS011;64964;48.694;21.206;2023-07-24T10:17:01;8.88;;;5.55;;
76194;SDS011;64964;48.694;21.206;2023-07-24T10:19:34;10.17;;;7.23;;
76194;SDS011;64964;48.694;21.206;2023-07-24T10:22:01;7.72;;;6.28;;
76194;SDS011;64964;48.694;21.206;2023-07-24T10:24:32;8.90;;;6.55;;
76194;SDS011;64964;48.694;21.206;2023-07-24T10:26:58;9.68;;;6.80;;
76194;SDS011;64964;48.694;21.206;2023-07-24T10:29:26;9.33;;;6.30;;
76194;SDS011;64964;48.694;21.206;2023-07-24T10:31:52;9.57;;;7.00;;
76194;SDS011;64964;48.694;21.206;2023-07-24T10:34:19;8.95;;;6.75;;
76194;SDS011;64964;48.694;21.206;2023-07-24T10:36:45;9.97;;;6.20;;
76194;SDS011;64964;48.694;21.206;2023-07-24T10:39:14;12.10;;;8.68;;
76194;SDS011;64964;48.694;21.206;2023-07-24T10:41:41;10.90;;;8.52;;
76194;SDS011;64964;48.694;21.206;2023-07-24T10:44:06;12.13;;;9.30;;
76194;SDS011;64964;48.694;21.206;2023-07-24T10:46:35;11.30;;;7.70;;
76194;SDS011;64964;48.694;21.206;2023-07-24T10:49:02;12.93;;;8.38;;
76194;SDS011;64964;48.694;21.206;2023-07-24T10:51:29;14.43;;;8.95;;
76194;SDS011;64964;48.694;21.206;2023-07-24T10:53:54;9.88;;;7.57;;
76194;SDS011;64964;48.694;21.206;2023-07-24T10:56:20;10.27;;;6.83;;
76194;SDS011;64964;48.694;21.206;2023-07-24T10:58:45;11.97;;;7.87;;
76194;SDS011;64964;48.694;21.206;2023-07-24T11:01:10;9.68;;;7.82;;
76194;SDS011;64964;48.694;21.206;2023-07-24T11:03:36;8.03;;;5.77;;
76194;SDS011;64964;48.694;21.206;2023-07-24T11:06:03;9.63;;;6.90;;
76194;SDS011;64964;48.694;21.206;2023-07-24T11:08:29;8.82;;;6.55;;
76194;SDS011;64964;48.694;21.206;2023-07-24T11:10:56;11.73;;;7.97;;
76194;SDS011;64964;48.694;21.206;2023-07-24T11:13:23;10.48;;;7.22;;
76194;SDS011;64964;48.694;21.206;2023-07-24T11:15:50;10.55;;;7.00;;
76194;SDS011;64964;48.694;21.206;2023-07-24T11:18:16;9.73;;;6.85;;
76194;SDS011;64964;48.694;21.206;2023-07-24T11:20:50;11.10;;;7.35;;
76194;SDS011;64964;48.694;21.206;2023-07-24T11:23:17;24.75;;;12.27;;
76194;SDS011;64964;48.694;21.206;2023-07-24T11:25:43;12.80;;;7.80;;
76194;SDS011;64964;48.694;21.206;2023-07-24T11:28:10;14.27;;;8.73;;
76194;SDS011;64964;48.694;21.206;2023-07-24T11:30:37;12.35;;;7.20;;
76194;SDS011;64964;48.694;21.206;2023-07-24T11:33:03;10.38;;;6.20;;
76194;SDS011;64964;48.694;21.206;2023-07-24T11:35:30;11.85;;;7.68;;
76194;SDS011;64964;48.694;21.206;2023-07-24T11:37:56;11.90;;;6.80;;
76194;SDS011;64964;48.694;21.206;2023-07-24T11:40:29;11.52;;;7.20;;
76194;SDS011;64964;48.694;21.206;2023-07-24T11:42:57;10.48;;;6.82;;
76194;SDS011;64964;48.694;21.206;2023-07-24T11:45:22;11.50;;;6.53;;
76194;SDS011;64964;48.694;21.206;2023-07-24T11:47:48;12.07;;;7.67;;
76194;SDS011;64964;48.694;21.206;2023-07-24T11:50:15;9.73;;;6.30;;
76194;SDS011;64964;48.694;21.206;2023-07-24T11:52:45;8.75;;;6.18;;
76194;SDS011;64964;48.694;21.206;2023-07-24T11:55:12;11.13;;;7.00;;
76194;SDS011;64964;48.694;21.206;2023-07-24T11:57:39;9.27;;;6.13;;
76194;SDS011;64964;48.694;21.206;2023-07-24T12:00:05;11.00;;;6.78;;
76194;SDS011;64964;48.694;21.206;2023-07-24T12:02:42;13.67;;;6.40;;
76194;SDS011;64964;48.694;21.206;2023-07-24T12:05:09;10.07;;;6.22;;
76194;SDS011;64964;48.694;21.206;2023-07-24T12:07:35;14.52;;;8.15;;
76194;SDS011;64964;48.694;21.206;2023-07-24T12:10:02;9.57;;;6.33;;
76194;SDS011;64964;48.694;21.206;2023-07-24T12:12:43;11.23;;;6.70;;
76194;SDS011;64964;48.694;21.206;2023-07-24T12:15:10;9.32;;;6.18;;
76194;SDS011;64964;48.694;21.206;2023-07-24T12:17:36;11.15;;;6.20;;
76194;SDS011;64964;48.694;21.206;2023-07-24T12:20:02;9.90;;;5.65;;
76194;SDS011;64964;48.694;21.206;2023-07-24T12:22:30;13.03;;;6.63;;
76194;SDS011;64964;48.694;21.206;2023-07-24T12:24:56;10.40;;;6.73;;
76194;SDS011;64964;48.694;21.206;2023-07-24T12:27:21;10.13;;;6.30;;
76194;SDS011;64964;48.694;21.206;2023-07-24T12:29:47;9.33;;;6.77;;
76194;SDS011;64964;48.694;21.206;2023-07-24T12:32:12;11.43;;;6.75;;
76194;SDS011;64964;48.694;21.206;2023-07-24T12:34:38;8.03;;;6.30;;
76194;SDS011;64964;48.694;21.206;2023-07-24T12:37:03;8.60;;;5.97;;
76194;SDS011;64964;48.694;21.206;2023-07-24T12:39:29;10.87;;;6.40;;
76194;SDS011;64964;48.694;21.206;2023-07-24T12:41:54;9.07;;;6.07;;
76194;SDS011;64964;48.694;21.206;2023-07-24T12:44:20;9.30;;;6.50;;
76194;SDS011;64964;48.694;21.206;2023-07-24T12:46:45;9.70;;;6.25;;
76194;SDS011;64964;48.694;21.206;2023-07-24T12:49:10;10.60;;;6.60;;
76194;SDS011;64964;48.694;21.206;2023-07-24T12:51:36;11.37;;;6.60;;
76194;SDS011;64964;48.694;21.206;2023-07-24T12:54:01;9.90;;;6.67;;
76194;SDS011;64964;48.694;21.206;2023-07-24T12:56:27;9.73;;;6.60;;
76194;SDS011;64964;48.694;21.206;2023-07-24T12:58:52;11.60;;;6.50;;
76194;SDS011;64964;48.694;21.206;2023-07-24T13:01:17;9.93;;;6.57;;
76194;SDS011;64964;48.694;21.206;2023-07-24T13:03:43;11.73;;;5.73;;
76194;SDS011;64964;48.694;21.206;2023-07-24T13:06:09;8.93;;;6.22;;
76194;SDS011;64964;48.694;21.206;2023-07-24T13:08:35;9.20;;;5.80;;
76194;SDS011;64964;48.694;21.206;2023-07-24T13:11:00;12.50;;;6.50;;
76194;SDS011;64964;48.694;21.206;2023-07-24T13:13:25;10.77;;;6.37;;
76194;SDS011;64964;48.694;21.206;2023-07-24T13:15:51;10.97;;;6.53;;
76194;SDS011;64964;48.694;21.206;2023-07-24T13:18:16;9.27;;;6.67;;
76194;SDS011;64964;48.694;21.206;2023-07-24T13:20:44;10.40;;;6.28;;
76194;SDS011;64964;48.694;21.206;2023-07-24T13:23:10;10.13;;;6.70;;
76194;SDS011;64964;48.694;21.206;2023-07-24T13:25:35;9.27;;;6.03;;
76194;SDS011;64964;48.694;21.206;2023-07-24T13:28:01;12.20;;;6.63;;
76194;SDS011;64964;48.694;21.206;2023-07-24T13:30:26;13.40;;;6.90;;
76194;SDS011;64964;48.694;21.206;2023-07-24T13:32:51;11.07;;;6.60;;
76194;SDS011;64964;48.694;21.206;2023-07-24T13:35:17;10.90;;;6.75;;
76194;SDS011;64964;48.694;21.206;2023-07-24T13:37:42;9.83;;;6.73;;
76194;SDS011;64964;48.694;21.206;2023-07-24T13:40:08;11.60;;;6.53;;
76194;SDS011;64964;48.694;21.206;2023-07-24T13:42:33;9.02;;;6.80;;
76194;SDS011;64964;48.694;21.206;2023-07-24T13:44:59;10.63;;;7.13;;
76194;SDS011;64964;48.694;21.206;2023-07-24T13:47:24;9.23;;;6.63;;
76194;SDS011;64964;48.694;21.206;2023-07-24T13:49:50;11.50;;;7.00;;
76194;SDS011;64964;48.694;21.206;2023-07-24T13:52:15;10.50;;;7.40;;
76194;SDS011;64964;48.694;21.206;2023-07-24T13:54:40;11.03;;;7.63;;
76194;SDS011;64964;48.694;21.206;2023-07-24T13:57:06;12.73;;;7.53;;
76194;SDS011;64964;48.694;21.206;2023-07-24T13:59:33;11.95;;;7.90;;
76194;SDS011;64964;48.694;21.206;2023-07-24T14:01:59;12.07;;;7.80;;
76194;SDS011;64964;48.694;21.206;2023-07-24T14:04:25;13.93;;;6.37;;
76194;SDS011;64964;48.694;21.206;2023-07-24T14:06:50;10.90;;;7.53;;
76194;SDS011;64964;48.694;21.206;2023-07-24T14:09:16;12.27;;;7.57;;
76194;SDS011;64964;48.694;21.206;2023-07-24T14:11:41;14.33;;;8.13;;
76194;SDS011;64964;48.694;21.206;2023-07-24T14:14:06;13.20;;;7.67;;
76194;SDS011;64964;48.694;21.206;2023-07-24T14:16:32;13.67;;;7.60;;
76194;SDS011;64964;48.694;21.206;2023-07-24T14:18:57;11.30;;;7.43;;
76194;SDS011;64964;48.694;21.206;2023-07-24T14:21:23;16.27;;;6.83;;
76194;SDS011;64964;48.694;21.206;2023-07-24T14:23:48;12.17;;;7.23;;
76194;SDS011;64964;48.694;21.206;2023-07-24T14:26:13;11.75;;;7.05;;
76194;SDS011;64964;48.694;21.206;2023-07-24T14:28:39;11.73;;;7.30;;